Time;durP1;ratioP1;P1;durP2;ratioP2;P2;SDS_P1;SDS_P2;PMS_P1;PMS_P2;Temp;Humidity;BMP_temperature;BMP_pressure;BME280_temperature;BME280_humidity;BME280_pressure;Samples;Min_cycle;Max_cycle;Signal;HPM_P1;HPM_P2
2021/05/02 00:01:18;;;;;;;11.75;7.25;;;5.00;99.90;;;3.25;77.82;101112.72;3521410;39;102397;-40
2021/05/02 00:03:46;;;;;;;12.02;7.63;;;5.00;99.90;;;3.19;78.02;101115.19;3529249;39;103165;-39
2021/05/02 00:06:16;;;;;;;12.18;7.32;;;4.90;99.90;;;3.14;78.33;101113.81;3505595;39;103338;-40
2021/05/02 00:08:44;;;;;;;12.93;7.32;;;4.90;99.90;;;3.11;78.29;101111.44;3529753;39;102223;-40
2021/05/02 00:11:11;;;;;;;11.90;7.28;;;4.80;99.90;;;3.06;78.44;101116.47;3520771;39;102684;-40
2021/05/02 00:13:40;;;;;;;12.10;7.90;;;4.80;99.90;;;3.01;78.06;101118.75;3512666;39;104912;-40
2021/05/02 00:16:09;;;;;;;11.98;7.25;;;4.70;99.90;;;2.96;78.35;101121.94;3529207;39;102343;-40
2021/05/02 00:18:38;;;;;;;11.90;7.72;;;4.70;99.90;;;2.90;78.48;101125.22;3513161;39;102319;-41
2021/05/02 00:21:10;;;;;;;12.48;7.40;;;4.60;99.90;;;2.86;78.57;101121.16;3537582;39;103296;-40
2021/05/02 00:23:41;;;;;;;12.50;7.53;;;4.60;99.90;;;2.82;79.39;101123.31;3529381;39;105697;-40
2021/05/02 00:26:12;;;;;;;12.07;7.55;;;4.60;99.90;;;2.80;79.52;101128.03;3529008;39;102524;-40
2021/05/02 00:28:49;;;;;;;14.63;8.10;;;4.50;99.90;;;2.78;79.55;101123.78;3520937;39;103127;-40
2021/05/02 00:31:19;;;;;;;12.68;7.50;;;4.50;99.90;;;2.75;79.67;101111.44;3529367;39;102447;-40
2021/05/02 00:33:46;;;;;;;11.43;7.35;;;4.50;99.90;;;2.73;79.90;101119.69;3529169;39;104159;-40
2021/05/02 00:36:15;;;;;;;14.87;7.83;;;4.50;99.90;;;2.71;80.03;101121.69;3521222;39;103784;-40
2021/05/02 00:38:43;;;;;;;13.05;7.72;;;4.40;99.90;;;2.69;79.98;101118.31;3538732;39;102370;-40
2021/05/02 00:41:21;;;;;;;13.73;8.00;;;4.40;99.90;;;2.68;80.00;101122.00;3505217;39;103498;-40
2021/05/02 00:44:02;;;;;;;15.68;8.63;;;4.40;99.90;;;2.69;80.04;101120.16;3521387;39;104440;-39
2021/05/02 00:46:53;;;;;;;11.90;7.25;;;4.40;99.90;;;2.73;80.52;101129.63;3521223;39;102295;-40
2021/05/02 00:49:37;;;;;;;14.18;7.85;;;4.40;99.90;;;2.75;80.70;101126.78;3538727;39;104023;-40
2021/05/02 00:52:33;;;;;;;12.43;7.47;;;4.40;99.90;;;2.75;80.77;101124.91;3521439;39;104905;-40
2021/05/02 00:55:14;;;;;;;13.90;8.57;;;4.50;99.90;;;2.76;81.68;101128.47;3538135;39;104116;-40
2021/05/02 00:57:55;;;;;;;15.20;8.77;;;4.50;99.90;;;2.73;81.64;101130.47;3521042;39;102347;-40
2021/05/02 01:00:26;;;;;;;14.75;8.85;;;4.50;99.90;;;2.73;81.93;101130.47;3537470;39;103959;-40
2021/05/02 01:02:59;;;;;;;17.85;9.75;;;4.50;99.90;;;2.69;81.77;101129.09;3521073;39;105061;-40
2021/05/02 01:05:31;;;;;;;13.73;8.43;;;4.40;99.90;;;2.64;81.61;101120.59;3528920;39;104941;-40
2021/05/02 01:08:03;;;;;;;13.85;8.80;;;4.40;99.90;;;2.61;81.53;101128.16;3529318;39;102664;-39
2021/05/02 01:10:32;;;;;;;14.18;8.65;;;4.40;99.90;;;2.56;81.74;101128.59;3528802;39;105628;-40
2021/05/02 01:13:04;;;;;;;13.98;7.72;;;4.30;99.90;;;2.51;81.79;101129.03;3520789;39;102792;-39
2021/05/02 01:15:34;;;;;;;13.65;7.85;;;4.20;99.90;;;2.48;81.73;101131.22;3538011;39;102668;-40
2021/05/02 01:18:10;;;;;;;15.18;7.70;;;4.20;99.90;;;2.43;81.47;101132.53;3528935;39;103187;-40
2021/05/02 01:20:42;;;;;;;13.50;7.93;;;4.20;99.90;;;2.39;81.31;101127.59;3512614;39;104087;-40
2021/05/02 01:23:30;;;;;;;13.20;7.97;;;4.20;99.90;;;2.34;81.02;101136.09;3520691;39;102418;-39
2021/05/02 01:26:01;;;;;;;13.25;7.75;;;4.10;99.90;;;2.29;81.25;101127.63;3512589;39;104879;-40
2021/05/02 01:28:30;;;;;;;14.20;7.88;;;4.10;99.90;;;2.27;81.09;101135.03;3529179;39;102416;-40
2021/05/02 01:30:58;;;;;;;14.98;8.95;;;4.00;99.90;;;2.26;81.52;101133.31;3528970;39;102285;-40
2021/05/02 01:33:25;;;;;;;;;;;4.00;99.90;;;2.26;81.71;101141.41;3529484;39;102304;-39
2021/05/02 01:35:55;;;;;;;16.58;8.20;;;3.90;99.90;;;2.21;81.97;101128.38;3520878;39;105073;-40
2021/05/02 01:38:24;;;;;;;13.88;8.60;;;3.90;99.90;;;2.27;82.03;101135.88;3641371;22;103245;-41
2021/05/02 01:40:54;;;;;;;14.75;8.70;;;4.00;99.90;;;2.25;82.81;101120.88;3512899;39;103144;-41
2021/05/02 01:43:24;;;;;;;13.98;8.68;;;4.00;99.90;;;2.37;83.45;101135.81;3512089;39;102524;-40
2021/05/02 01:45:53;;;;;;;14.57;8.15;;;4.00;99.90;;;2.44;83.89;101131.53;3529011;39;102217;-41
2021/05/02 01:48:23;;;;;;;15.40;8.50;;;4.10;99.90;;;2.52;84.69;101141.53;3520216;39;104579;-41
2021/05/02 01:51:04;;;;;;;14.20;8.88;;;4.20;99.90;;;2.52;85.07;101132.59;3513141;39;103987;-41
2021/05/02 01:53:32;;;;;;;17.33;9.63;;;4.30;99.90;;;2.58;85.30;101142.75;3512476;39;103793;-41
2021/05/02 01:56:02;;;;;;;15.52;9.38;;;4.30;99.90;;;2.56;85.61;101148.31;3512501;39;104117;-41
2021/05/02 01:58:35;;;;;;;15.65;9.15;;;4.30;99.90;;;2.57;85.43;101143.75;3520951;39;104722;-41
2021/05/02 02:01:11;;;;;;;16.02;9.02;;;4.30;99.90;;;2.56;85.69;101144.75;3521052;39;105764;-40
2021/05/02 02:03:39;;;;;;;18.60;9.43;;;4.30;99.90;;;2.52;85.27;101143.38;3520238;39;103294;-41
2021/05/02 02:06:08;;;;;;;15.95;9.43;;;4.20;99.90;;;2.46;84.79;101147.50;3512751;39;103161;-41
2021/05/02 02:08:36;;;;;;;15.80;9.10;;;4.20;99.90;;;2.44;84.59;101147.69;3512452;39;102338;-41
2021/05/02 02:11:05;;;;;;;15.73;9.52;;;4.20;99.90;;;2.43;83.93;101148.69;3519693;39;102415;-41
2021/05/02 02:13:34;;;;;;;17.88;9.35;;;4.20;99.90;;;2.45;84.12;101153.91;3503681;39;102149;-40
2021/05/02 02:16:07;;;;;;;15.25;9.27;;;4.10;99.90;;;2.53;84.77;101155.84;3512279;39;103164;-41
2021/05/02 02:18:34;;;;;;;16.20;9.10;;;4.20;99.90;;;2.56;84.45;101158.22;3529937;39;103345;-41
2021/05/02 02:21:02;;;;;;;16.40;9.80;;;4.20;99.90;;;2.62;84.93;101157.63;3504347;39;102361;-41
2021/05/02 02:23:34;;;;;;;17.75;9.55;;;4.30;99.90;;;2.68;85.56;101161.56;3504012;39;104205;-40
2021/05/02 02:26:20;;;;;;;16.45;9.57;;;4.30;99.90;;;2.72;85.60;101154.88;3512448;39;103271;-41
2021/05/02 02:28:52;;;;;;;16.40;9.82;;;4.40;99.90;;;2.80;86.80;101157.66;3521215;39;102344;-41
2021/05/02 02:31:22;;;;;;;17.92;10.45;;;4.40;99.90;;;2.86;86.84;101166.97;3512647;39;102735;-41
2021/05/02 02:33:51;;;;;;;18.35;11.23;;;4.50;99.90;;;2.88;86.48;101167.66;3528501;39;102424;-41
2021/05/02 02:36:23;;;;;;;18.80;10.15;;;4.50;99.90;;;2.93;86.72;101165.38;3520441;39;102282;-40
2021/05/02 02:38:51;;;;;;;17.23;9.90;;;4.60;99.90;;;2.99;86.97;101177.38;3521004;39;102467;-41
2021/05/02 02:41:19;;;;;;;18.95;10.98;;;4.60;99.90;;;3.01;87.09;101170.81;3504066;39;103961;-41
2021/05/02 02:43:58;;;;;;;17.88;10.88;;;4.70;99.90;;;3.09;87.26;101177.28;3503904;39;102991;-40
2021/05/02 02:46:29;;;;;;;19.05;11.57;;;4.70;99.90;;;3.18;87.28;101181.75;3520655;39;103381;-41
2021/05/02 02:49:01;;;;;;;19.75;11.32;;;4.80;99.90;;;3.22;87.38;101182.28;3512235;39;102454;-40
2021/05/02 02:51:29;;;;;;;20.05;10.95;;;4.80;99.90;;;3.29;87.29;101181.53;3503713;39;103465;-41
2021/05/02 02:54:03;;;;;;;21.65;11.65;;;4.90;99.90;;;3.33;87.35;101192.00;3519633;39;102401;-41
2021/05/02 02:56:36;;;;;;;20.02;11.18;;;4.90;99.90;;;3.38;86.54;101192.38;3528697;39;103067;-41
2021/05/02 02:59:18;;;;;;;20.20;11.27;;;5.00;99.90;;;3.40;86.43;101198.44;3520498;39;105522;-41
2021/05/02 03:01:49;;;;;;;21.33;11.77;;;5.00;99.90;;;3.40;86.57;101195.75;3512293;39;103150;-41
2021/05/02 03:04:19;;;;;;;22.40;12.57;;;5.00;99.90;;;3.43;86.67;101190.03;3512329;39;104070;-41
2021/05/02 03:06:51;;;;;;;22.02;12.10;;;5.10;99.90;;;3.47;86.50;101196.84;3520353;39;103134;-41
2021/05/02 03:09:22;;;;;;;21.33;12.30;;;5.10;99.90;;;3.49;86.53;101192.13;3512099;39;102474;-40
2021/05/02 03:11:50;;;;;;;20.48;11.95;;;5.10;99.90;;;3.52;86.65;101202.63;3512074;39;103212;-41
2021/05/02 03:14:18;;;;;;;20.13;11.93;;;5.20;99.90;;;3.53;86.02;101203.44;3503948;39;102328;-41
2021/05/02 03:16:51;;;;;;;22.70;11.67;;;5.20;99.90;;;3.55;85.88;101198.72;3504366;39;103548;-41
2021/05/02 03:19:27;;;;;;;21.80;12.40;;;5.20;99.90;;;3.57;85.93;101197.59;3512652;39;102136;-41
2021/05/02 03:22:19;;;;;;;22.35;12.00;;;5.20;99.90;;;3.62;86.85;101198.97;3504067;39;102330;-41
2021/05/02 03:24:56;;;;;;;23.20;12.95;;;5.20;99.90;;;3.65;86.05;101196.81;3520528;39;102377;-41
2021/05/02 03:27:34;;;;;;;21.33;11.48;;;5.20;99.90;;;3.68;86.10;101209.13;3520362;39;104313;-41
2021/05/02 03:30:07;;;;;;;23.10;12.65;;;5.30;99.90;;;3.71;86.35;101204.25;3512051;39;103361;-41
2021/05/02 03:32:43;;;;;;;20.35;11.60;;;5.30;99.90;;;3.74;85.84;101211.22;3529204;39;102146;-41
2021/05/02 03:35:13;;;;;;;21.98;11.98;;;5.30;99.90;;;3.75;86.35;101207.50;3520295;39;104383;-41
2021/05/02 03:37:49;;;;;;;24.48;12.77;;;5.40;99.90;;;3.77;86.18;101210.91;3528484;39;102361;-41
2021/05/02 03:40:18;;;;;;;23.05;12.20;;;5.40;99.90;;;3.79;85.53;101216.13;3520096;39;102430;-41
2021/05/02 03:42:46;;;;;;;22.02;12.65;;;5.40;99.90;;;3.81;85.54;101216.81;3512065;39;106563;-40
2021/05/02 03:45:14;;;;;;;20.98;12.20;;;5.40;99.90;;;3.81;86.10;101227.59;3512203;39;103244;-41
2021/05/02 03:47:42;;;;;;;;;;;5.40;99.90;;;3.83;85.60;101226.44;3512747;39;104859;-41
2021/05/02 03:50:11;;;;;;;21.65;12.43;;;5.40;99.90;;;3.88;86.01;101226.81;3504151;39;102163;-40
2021/05/02 03:52:38;;;;;;;18.13;11.15;;;5.40;99.90;;;3.87;85.93;101235.91;3529685;39;104004;-41
2021/05/02 03:55:07;;;;;;;19.90;12.13;;;5.50;99.90;;;3.91;85.82;101232.91;3503922;39;102908;-41
2021/05/02 03:57:36;;;;;;;20.98;12.27;;;5.50;99.90;;;3.95;85.51;101234.28;3519948;39;103328;-40
2021/05/02 04:00:04;;;;;;;;;;;5.50;99.90;;;3.96;85.77;101238.66;3521540;39;102314;-41
2021/05/02 04:02:31;;;;;;;22.55;12.02;;;5.50;99.90;;;3.99;85.21;101238.38;3511395;39;103401;-41
2021/05/02 04:04:59;;;;;;;21.30;11.57;;;5.60;99.90;;;3.99;85.90;101238.38;3519818;39;103138;-40
2021/05/02 04:07:27;;;;;;;21.30;11.75;;;5.60;99.90;;;3.99;85.47;101241.91;3503916;39;102795;-40
2021/05/02 04:09:54;;;;;;;21.75;12.02;;;5.60;99.90;;;3.99;85.44;101243.78;3511355;39;104513;-41
2021/05/02 04:12:21;;;;;;;22.07;12.10;;;5.60;99.90;;;4.07;85.13;101251.91;3503732;39;104025;-41
2021/05/02 04:14:49;;;;;;;20.67;12.10;;;5.60;99.90;;;4.06;84.90;101249.38;3503787;39;103386;-41
2021/05/02 04:17:16;;;;;;;23.80;12.20;;;5.60;99.90;;;4.08;84.88;101252.75;3511789;39;104057;-41
2021/05/02 04:19:48;;;;;;;22.45;11.65;;;5.60;99.90;;;4.10;85.31;101250.72;3520007;39;104403;-41
2021/05/02 04:22:18;;;;;;;19.85;10.88;;;5.70;99.90;;;4.09;85.32;101254.44;3503928;39;102122;-41
2021/05/02 04:24:48;;;;;;;21.60;11.20;;;5.60;99.90;;;4.11;84.58;101253.28;3520123;39;103599;-41
2021/05/02 04:27:17;;;;;;;19.30;12.13;;;5.70;99.90;;;4.08;84.85;101259.00;3520216;39;104021;-41
2021/05/02 04:29:45;;;;;;;21.02;11.05;;;5.70;99.90;;;4.09;85.23;101268.81;3511757;39;102422;-41
2021/05/02 04:32:12;;;;;;;22.05;11.00;;;5.70;99.90;;;4.09;85.24;101266.09;3512440;39;102233;-41
2021/05/02 04:34:40;;;;;;;18.97;10.90;;;5.70;99.90;;;4.20;84.65;101272.25;3503523;39;102551;-41
2021/05/02 04:37:07;;;;;;;19.08;11.30;;;5.70;99.90;;;4.20;84.29;101280.34;3520238;39;103284;-41
2021/05/02 04:39:35;;;;;;;18.63;10.65;;;5.70;99.90;;;4.22;85.45;101279.19;3511863;39;103177;-41
2021/05/02 04:42:04;;;;;;;19.57;11.13;;;5.80;99.90;;;4.21;84.42;101273.94;3503693;39;105038;-41
2021/05/02 04:44:31;;;;;;;17.90;10.68;;;5.80;99.90;;;4.22;85.11;101287.28;3511364;39;102553;-40
2021/05/02 04:46:59;;;;;;;18.13;9.90;;;5.80;99.90;;;4.24;85.64;101285.28;3520059;39;103164;-41
2021/05/02 04:49:26;;;;;;;19.13;10.50;;;5.80;99.90;;;4.27;84.66;101286.81;3520347;39;102884;-41
2021/05/02 04:51:54;;;;;;;14.87;9.03;;;5.80;99.90;;;4.29;83.98;101290.22;3503580;39;104110;-41
2021/05/02 04:54:21;;;;;;;18.13;10.67;;;5.80;99.90;;;4.30;83.73;101295.44;3495042;39;102339;-41
2021/05/02 04:56:49;;;;;;;16.02;8.48;;;5.80;99.90;;;4.29;83.66;101287.50;3503256;39;103469;-41
2021/05/02 04:59:17;;;;;;;13.65;8.27;;;5.90;99.90;;;4.29;83.27;101307.25;3503846;39;102536;-41
2021/05/02 05:01:45;;;;;;;15.75;8.90;;;5.90;99.90;;;4.34;83.34;101303.22;3519855;39;103345;-41
2021/05/02 05:04:14;;;;;;;15.00;8.38;;;5.90;99.90;;;4.40;83.85;101308.00;3519880;39;102162;-41
2021/05/02 05:06:41;;;;;;;14.15;7.93;;;5.90;99.90;;;4.41;83.81;101313.22;3512196;39;102751;-42
2021/05/02 05:09:08;;;;;;;16.07;8.73;;;5.90;99.90;;;4.43;82.88;101313.09;3520197;39;103766;-41
2021/05/02 05:11:37;;;;;;;16.73;8.40;;;6.00;99.90;;;4.42;83.08;101314.09;3511121;39;104269;-41
2021/05/02 05:14:05;;;;;;;15.18;7.75;;;6.00;99.90;;;4.48;83.15;101318.84;3522539;39;102695;-41
2021/05/02 05:16:33;;;;;;;12.93;7.30;;;6.00;99.90;;;4.50;83.39;101322.25;3515037;39;103429;-41
2021/05/02 05:19:00;;;;;;;12.98;6.72;;;6.00;99.90;;;4.55;81.76;101327.19;3522903;39;102357;-40
2021/05/02 05:21:28;;;;;;;11.63;6.70;;;6.10;99.90;;;4.56;81.01;101326.16;3514946;39;104036;-41
2021/05/02 05:23:55;;;;;;;10.23;6.05;;;6.10;99.90;;;4.61;80.20;101326.53;3522277;39;104674;-41
2021/05/02 05:26:22;;;;;;;14.20;5.85;;;6.10;99.90;;;4.69;80.94;101337.38;3523107;39;104955;-41
2021/05/02 05:28:50;;;;;;;11.68;5.97;;;6.20;99.90;;;4.67;80.08;101333.16;3506433;39;102493;-41
2021/05/02 05:31:17;;;;;;;10.10;5.63;;;6.20;99.90;;;4.69;79.57;101340.06;3514811;39;103144;-41
2021/05/02 05:33:44;;;;;;;9.73;5.90;;;6.20;99.90;;;4.74;80.32;101345.84;3506212;39;102514;-40
2021/05/02 05:36:12;;;;;;;10.20;5.20;;;6.20;99.90;;;4.81;79.22;101345.22;3522738;39;104311;-41
2021/05/02 05:38:39;;;;;;;8.80;4.93;;;6.30;99.90;;;4.82;79.23;101347.75;3522813;39;104912;-41
2021/05/02 05:41:06;;;;;;;10.18;5.28;;;6.30;99.90;;;4.83;78.96;101354.84;3515052;39;104423;-40
2021/05/02 05:43:33;;;;;;;8.43;4.47;;;6.30;99.90;;;4.87;78.95;101355.38;3506184;39;103474;-40
2021/05/02 05:46:00;;;;;;;10.60;5.47;;;6.40;99.90;;;4.97;79.49;101355.25;3522749;39;104234;-41
2021/05/02 05:48:28;;;;;;;8.63;4.57;;;6.40;99.90;;;5.07;79.11;101352.44;3514358;39;102488;-41
2021/05/02 05:50:56;;;;;;;11.17;4.77;;;6.50;99.90;;;5.15;78.89;101352.44;3522784;39;104110;-41
2021/05/02 05:53:23;;;;;;;;;;;6.60;99.90;;;5.21;78.10;101356.38;3514896;39;102477;-41
2021/05/02 05:55:56;;;;;;;6.68;3.83;;;6.60;99.90;;;5.31;77.63;101354.34;3514699;39;103993;-41
2021/05/02 05:58:24;;;;;;;7.28;4.18;;;6.70;99.90;;;5.47;77.39;101364.38;3515498;39;102768;-41
2021/05/02 06:00:52;;;;;;;9.82;4.50;;;6.80;99.90;;;5.57;77.43;101356.09;3522708;39;103136;-41
2021/05/02 06:03:19;;;;;;;9.10;4.33;;;6.90;99.90;;;5.64;76.34;101356.31;3514285;39;103291;-40
2021/05/02 06:05:46;;;;;;;7.03;4.00;;;7.00;99.90;;;5.81;77.56;101363.41;3522557;39;104061;-41
2021/05/02 06:08:14;;;;;;;9.38;4.10;;;7.10;99.90;;;5.95;76.78;101361.06;3522712;39;102187;-41
2021/05/02 06:10:41;;;;;;;8.75;4.35;;;7.30;99.90;;;6.04;75.61;101363.63;3521495;39;102438;-40
2021/05/02 06:13:08;;;;;;;8.23;3.78;;;7.40;99.90;;;6.21;74.95;101368.19;3514501;39;102516;-41
2021/05/02 06:15:36;;;;;;;7.65;3.63;;;7.50;99.90;;;6.28;74.45;101375.50;3513970;39;103352;-41
2021/05/02 06:18:09;;;;;;;6.15;3.33;;;7.60;99.90;;;6.37;73.27;101378.19;3522774;39;104285;-41
2021/05/02 06:20:36;;;;;;;7.60;3.85;;;7.70;99.90;;;6.47;74.90;101374.28;3514372;39;103143;-41
2021/05/02 06:23:03;;;;;;;8.48;3.45;;;7.80;99.90;;;6.56;72.79;101382.38;3506159;39;103300;-41
2021/05/02 06:25:30;;;;;;;10.43;4.10;;;7.90;99.90;;;6.60;71.93;101378.31;3512517;39;103704;-41
2021/05/02 06:27:59;;;;;;;6.32;3.42;;;8.00;99.90;;;6.64;72.35;101376.97;3520940;39;102774;-41
2021/05/02 06:30:28;;;;;;;7.50;3.13;;;8.00;99.90;;;6.79;71.80;101376.22;3520895;39;104204;-41
2021/05/02 06:32:55;;;;;;;7.57;3.60;;;8.10;99.90;;;6.90;72.05;101379.41;3528869;39;102555;-41
2021/05/02 06:35:23;;;;;;;6.97;3.30;;;8.20;99.90;;;6.98;69.19;101392.13;3520303;39;104290;-41
2021/05/02 06:37:50;;;;;;;8.83;3.47;;;8.30;99.90;;;7.03;68.30;101383.47;3512684;39;102491;-41
2021/05/02 06:40:17;;;;;;;5.75;3.05;;;8.30;99.90;;;7.11;69.50;101388.00;3520583;39;103531;-41
2021/05/02 06:42:45;;;;;;;7.47;2.92;;;8.40;99.90;;;7.23;70.75;101389.31;3520528;39;102352;-41
2021/05/02 06:45:13;;;;;;;;;;;8.50;99.90;;;7.28;70.74;101395.06;3521244;39;105810;-41
2021/05/02 06:47:41;;;;;;;6.05;2.88;;;8.60;99.90;;;7.22;68.32;101382.19;3529300;39;103460;-41
2021/05/02 06:50:09;;;;;;;6.60;2.80;;;8.60;99.90;;;7.30;67.69;101384.84;3520733;39;104981;-41
2021/05/02 06:52:36;;;;;;;9.50;3.13;;;8.60;99.90;;;7.46;68.71;101380.38;3520562;39;102406;-41
2021/05/02 06:55:05;;;;;;;8.95;3.20;;;8.70;99.90;;;7.71;67.51;101393.81;3520434;39;104257;-41
2021/05/02 06:57:32;;;;;;;5.68;3.00;;;8.90;99.90;;;7.74;66.90;101390.75;3512358;39;102386;-41
2021/05/02 07:00:00;;;;;;;5.22;2.75;;;9.00;99.90;;;7.80;67.01;101395.44;3520862;39;104000;-42
2021/05/02 07:02:27;;;;;;;6.50;3.03;;;9.10;99.90;;;7.85;66.26;101394.91;3520867;39;102232;-41
2021/05/02 07:04:54;;;;;;;7.18;3.05;;;9.10;99.90;;;7.89;65.47;101399.78;3520177;39;104924;-41
2021/05/02 07:07:21;;;;;;;6.85;3.00;;;9.20;99.90;;;7.86;65.88;101396.59;3504197;39;102631;-41
2021/05/02 07:09:48;;;;;;;6.82;2.97;;;9.20;99.90;;;7.87;65.94;101401.84;3511790;39;102159;-42
2021/05/02 07:12:17;;;;;;;6.38;2.80;;;9.30;99.90;;;7.85;66.25;101403.88;3520453;39;102347;-41
2021/05/02 07:14:44;;;;;;;7.97;3.22;;;9.20;99.90;;;7.86;66.15;101405.59;3519970;39;102123;-41
2021/05/02 07:17:11;;;;;;;7.35;2.90;;;9.20;99.90;;;8.01;64.95;101404.81;3520156;39;104372;-41
2021/05/02 07:19:39;;;;;;;6.22;2.47;;;9.30;99.90;;;8.25;65.13;101405.66;3512655;39;104249;-41
2021/05/02 07:22:06;;;;;;;5.22;2.70;;;9.40;99.90;;;8.33;64.49;101405.56;3520546;39;102524;-41
2021/05/02 07:24:34;;;;;;;6.53;2.80;;;9.50;99.90;;;7.98;61.73;101402.47;3512087;39;103090;-41
2021/05/02 07:27:01;;;;;;;7.57;2.75;;;9.50;99.90;;;8.10;62.84;101406.44;3520136;39;103128;-41
2021/05/02 07:29:28;;;;;;;6.90;2.15;;;9.40;99.90;;;8.48;63.28;101416.47;3520514;39;102140;-41
2021/05/02 07:31:55;;;;;;;5.32;2.63;;;9.60;99.90;;;8.68;61.21;101414.09;3512362;39;102531;-42
2021/05/02 07:34:23;;;;;;;8.52;2.67;;;9.80;99.90;;;8.65;60.95;101419.91;3512128;39;104008;-41
2021/05/02 07:36:54;;;;;;;8.13;3.28;;;9.90;99.90;;;8.59;60.79;101416.06;3520851;39;102656;-41
2021/05/02 07:39:22;;;;;;;6.97;2.72;;;9.90;99.90;;;8.53;61.62;101426.84;3654597;22;103716;-40
2021/05/02 07:41:49;;;;;;;6.80;2.58;;;9.80;99.90;;;8.52;63.26;101425.16;3511040;39;104872;-40
2021/05/02 07:44:16;;;;;;;5.47;2.13;;;9.80;99.90;;;8.48;62.61;101422.75;3529677;39;102266;-40
2021/05/02 07:46:45;;;;;;;4.82;2.30;;;9.80;99.90;;;8.41;62.44;101427.25;3521861;39;102626;-40
2021/05/02 07:49:13;;;;;;;3.80;2.30;;;9.80;99.90;;;8.38;62.03;101424.06;3522504;39;103287;-40
2021/05/02 07:51:40;;;;;;;5.68;2.80;;;9.70;99.90;;;8.66;62.65;101432.50;3519542;39;103042;-40
2021/05/02 07:54:08;;;;;;;7.18;3.13;;;9.90;99.90;;;8.82;60.63;101434.19;3520068;39;104087;-40
2021/05/02 07:56:36;;;;;;;6.35;2.83;;;10.00;99.90;;;9.27;58.48;101423.31;3519870;39;102551;-40
2021/05/02 07:59:03;;;;;;;4.38;2.60;;;10.30;99.90;;;9.32;57.45;101425.47;3512049;39;104004;-40
2021/05/02 08:01:30;;;;;;;7.97;3.15;;;10.40;99.90;;;9.84;57.88;101426.31;3519887;39;104818;-40
2021/05/02 08:03:57;;;;;;;5.45;2.60;;;10.70;99.90;;;10.06;56.96;101427.16;3511346;39;103103;-40
2021/05/02 08:06:25;;;;;;;5.60;2.67;;;11.00;99.90;;;10.02;56.71;101434.06;3511707;39;102436;-40
2021/05/02 08:08:53;;;;;;;6.97;2.80;;;11.10;99.90;;;9.87;58.58;101433.25;3519541;39;104888;-39
2021/05/02 08:11:20;;;;;;;3.90;2.10;;;11.10;99.90;;;9.97;55.35;101432.94;3519370;39;103978;-41
2021/05/02 08:13:48;;;;;;;3.55;1.98;;;11.10;99.90;;;10.00;54.26;101435.28;3519297;39;103179;-40
2021/05/02 08:16:16;;;;;;;6.37;2.03;;;11.20;99.90;;;10.30;54.61;101437.88;3503378;39;103068;-40
2021/05/02 08:18:43;;;;;;;;;;;11.30;99.90;;;10.67;53.56;101427.72;3512964;39;102294;-40
2021/05/02 08:21:10;;;;;;;4.07;1.95;;;11.60;99.90;;;10.86;53.00;101438.97;3519869;39;102501;-40
2021/05/02 08:23:39;;;;;;;4.80;1.90;;;11.80;99.90;;;10.91;50.88;101428.31;3527657;39;104158;-40
2021/05/02 08:26:06;;;;;;;5.30;2.00;;;11.90;99.90;;;10.64;51.14;101441.78;3511411;39;102230;-40
2021/05/02 08:28:37;;;;;;;4.53;2.35;;;11.80;99.80;;;10.44;53.98;101444.31;3511447;39;104291;-40
2021/05/02 08:31:13;;;;;;;7.97;2.40;;;11.70;99.90;;;10.20;53.30;101446.38;3520059;39;102261;-40
2021/05/02 08:33:41;;;;;;;5.53;2.28;;;11.60;99.90;;;9.98;52.24;101450.97;3528921;39;104197;-40
2021/05/02 08:36:09;;;;;;;5.28;2.10;;;11.40;99.90;;;9.86;53.44;101454.22;3519407;39;102327;-40
2021/05/02 08:38:37;;;;;;;;;;;11.20;99.90;;;10.13;52.22;101456.38;3528922;39;103114;-40
2021/05/02 08:41:06;;;;;;;5.00;2.35;;;11.30;99.90;;;10.65;54.04;101448.91;3519807;39;102396;-40
2021/05/02 08:43:35;;;;;;;3.75;2.00;;;11.60;99.90;;;11.12;51.60;101448.38;3519603;39;103309;-40
2021/05/02 08:46:04;;;;;;;4.53;2.10;;;11.90;99.90;;;11.28;50.46;101448.06;3529022;39;102401;-40
2021/05/02 08:48:31;;;;;;;4.95;2.25;;;12.20;99.70;;;11.23;49.98;101448.66;3519032;39;104160;-40
2021/05/02 08:50:59;;;;;;;3.40;2.08;;;12.30;99.00;;;10.93;50.38;101450.81;3519415;39;102256;-40
2021/05/02 08:53:27;;;;;;;6.25;1.90;;;12.20;98.50;;;10.60;50.20;101463.16;3527937;39;103416;-40
2021/05/02 08:55:55;;;;;;;11.60;2.00;;;11.90;97.90;;;10.17;49.64;101454.94;3528623;39;102390;-40
2021/05/02 08:58:25;;;;;;;7.03;2.00;;;11.70;97.20;;;10.21;51.47;101451.66;3519576;39;102328;-40
2021/05/02 09:00:57;;;;;;;4.13;2.00;;;11.60;98.90;;;10.61;51.39;101447.63;3511549;39;103915;-40
2021/05/02 09:03:46;;;;;;;4.45;2.10;;;11.60;99.80;;;10.99;49.06;101451.88;3519293;39;103188;-40
2021/05/02 09:06:24;;;;;;;6.03;2.05;;;12.00;97.00;;;11.28;48.69;101433.56;3528796;39;103046;-40
2021/05/02 09:09:02;;;;;;;4.20;1.80;;;12.20;97.60;;;11.69;47.39;101435.41;3527146;39;105255;-40
2021/05/02 09:11:34;;;;;;;3.28;1.75;;;12.50;96.10;;;12.14;45.48;101442.31;3518622;39;103981;-40
2021/05/02 09:14:05;;;;;;;5.32;1.95;;;13.00;95.60;;;12.07;46.52;101442.28;3528449;39;104038;-40
2021/05/02 09:16:52;;;;;;;5.82;1.65;;;13.10;94.60;;;11.84;46.95;101446.19;3519128;39;103179;-40
2021/05/02 09:19:23;;;;;;;4.03;2.03;;;13.00;93.30;;;11.38;45.54;101455.88;3528319;39;103092;-41
2021/05/02 09:21:54;;;;;;;4.72;1.48;;;12.80;92.40;;;11.15;46.59;101453.47;3528443;39;102950;-40
2021/05/02 09:24:33;;;;;;;2.85;1.42;;;12.60;93.00;;;10.96;47.69;101460.47;3527943;39;102148;-40
2021/05/02 09:27:02;;;;;;;4.00;1.50;;;12.30;93.50;;;10.76;48.38;101461.19;3527993;39;102396;-40
2021/05/02 09:29:32;;;;;;;4.70;1.60;;;12.10;93.80;;;10.74;50.37;101453.19;3527253;39;103180;-40
2021/05/02 09:32:00;;;;;;;5.40;2.60;;;12.10;96.40;;;10.90;47.03;101454.75;3519243;39;102395;-40
2021/05/02 09:34:29;;;;;;;4.18;2.03;;;12.10;93.20;;;10.98;47.43;101456.50;3519072;39;103278;-40
2021/05/02 09:37:02;;;;;;;5.68;1.67;;;12.10;94.40;;;11.02;44.76;101455.06;3518848;39;103196;-40
2021/05/02 09:39:43;;;;;;;3.75;1.40;;;12.20;91.10;;;11.37;44.36;101454.19;3528220;39;104093;-40
2021/05/02 09:42:22;;;;;;;3.70;1.25;;;12.40;91.00;;;11.87;43.83;101453.97;3527686;39;103338;-40
2021/05/02 09:44:52;;;;;;;2.95;1.40;;;12.80;91.60;;;12.06;43.27;101465.22;3518591;39;103265;-40
2021/05/02 09:47:24;;;;;;;3.83;1.98;;;13.00;89.10;;;11.88;43.37;101463.03;3519127;39;102381;-40
2021/05/02 09:50:14;;;;;;;4.82;1.60;;;12.90;87.50;;;11.69;43.83;101461.91;3519615;39;102659;-40
2021/05/02 09:52:52;;;;;;;4.88;1.42;;;12.90;87.60;;;11.37;42.53;101465.13;3519148;39;102930;-40
2021/05/02 09:55:39;;;;;;;4.05;1.40;;;12.70;80.60;;;11.28;42.96;101464.44;3528072;39;103999;-40
2021/05/02 09:58:12;;;;;;;4.03;1.52;;;12.60;82.80;;;11.19;42.94;101468.41;3528161;39;102370;-40
2021/05/02 10:00:44;;;;;;;2.55;1.40;;;12.50;85.30;;;11.30;40.22;101465.09;3529177;39;103163;-40
2021/05/02 10:03:16;;;;;;;3.08;1.40;;;12.50;78.20;;;11.45;42.77;101456.75;3520403;39;102335;-41
2021/05/02 10:05:57;;;;;;;3.22;1.38;;;12.60;83.30;;;11.67;42.65;101464.84;3528198;39;103314;-40
2021/05/02 10:08:28;;;;;;;2.78;1.50;;;12.70;82.20;;;11.77;41.96;101461.72;3529623;39;102879;-40
2021/05/02 10:10:59;;;;;;;2.88;1.30;;;12.80;81.40;;;11.87;44.78;101464.91;3529043;39;103228;-40
2021/05/02 10:13:26;;;;;;;3.72;1.27;;;13.00;87.30;;;11.90;41.57;101469.97;3529119;39;102655;-39
2021/05/02 10:15:55;;;;;;;3.83;1.42;;;13.00;80.50;;;11.92;42.59;101461.56;3520587;39;105890;-40
2021/05/02 10:18:22;;;;;;;1.80;1.10;;;13.00;82.70;;;11.97;41.84;101467.25;3530178;39;102277;-40
2021/05/02 10:20:52;;;;;;;3.67;1.42;;;13.00;80.70;;;11.78;39.55;101466.97;3520199;39;103175;-40
2021/05/02 10:23:20;;;;;;;3.75;1.38;;;13.00;75.20;;;11.53;41.43;101466.69;3528315;39;102582;-40
2021/05/02 10:25:55;;;;;;;3.78;1.27;;;12.80;77.30;;;11.35;42.28;101475.41;3520087;39;103525;-40